CL Seven — ONJE — position and weather

sailwx.info

Track history (hours):
 
Tides and Currents Weather Stations Pressure Air Temp Water Temp Dewpoint Dewpoint Depression Visibility Wind Speed Wind Dir Waves Ship Positions

CL Seven

Last reported at 2017-Oct-31 18:48 UTC. Time now 2017-Dec-16 05:14 UTC.
Position N 37°25' E 025°55'.
Warning: this ship's position is 45 days out of date.

Length 183 m; draft 12.2 m.

Type: Ship. MMSI: 205728000.

Date/timePositionNaut miles runAvg speedWind from/ knotsBaromVisibWave heightAir tempDewpointWater temp
2017-Oct-31 18:48N 37°25' E 025°55'412.0
2017-Oct-31 18:30N 37°28' E 025°54'612.0
2017-Oct-31 18:00N 37°34' E 025°51'712.4
2017-Oct-31 17:29N 37°40' E 025°48'612.2
2017-Oct-31 17:00N 37°45' E 025°46'241 5.6
2017-Oct-29 21:54N 40°57' E 028°54'0 0.0
2017-Oct-29 21:24N 40°57' E 028°54'1 0.2
2017-Oct-29 18:09N 40°57' E 028°55'1 2.5
2017-Oct-29 17:49N 40°57' E 028°56'3 6.4
2017-Oct-29 17:20N 40°59' E 028°59'33310.2
2017-Oct-28 08:32N 46°22' E 030°52'212.3
2017-Oct-28 08:23N 46°24' E 030°51'411.7
2017-Oct-28 08:00N 46°28' E 030°49'3 6.2
2017-Oct-28 07:30N 46°30' E 030°46'1 3.0
2017-Oct-28 07:00N 46°31' E 030°44'0 0.4
2017-Oct-28 06:18N 46°30' E 030°44'0 0.0
2017-Oct-28 05:54N 46°30' E 030°44'0 0.0
2017-Oct-28 05:27N 46°30' E 030°44'0 0.0
2017-Oct-28 05:00N 46°30' E 030°44'0 0.0
2017-Oct-28 04:30N 46°30' E 030°44'0 0.0
2017-Oct-28 03:39N 46°30' E 030°44'0 0.0
2017-Oct-28 03:30N 46°30' E 030°44'0 0.0
2017-Oct-28 02:42N 46°30' E 030°44'0 0.0
2017-Oct-28 02:30N 46°30' E 030°44'0 0.0
2017-Oct-28 01:54N 46°30' E 030°44'0 0.0
2017-Oct-28 01:30N 46°30' E 030°44'0 0.0
2017-Oct-28 00:42N 46°30' E 030°44'0 0.0
2017-Oct-28 00:30N 46°30' E 030°44'0 0.0
2017-Oct-27 23:54N 46°30' E 030°44'0 0.0
2017-Oct-27 23:21N 46°30' E 030°44'0 0.0
2017-Oct-27 23:00N 46°30' E 030°44'0 0.0
2017-Oct-27 22:30N 46°30' E 030°44'0 0.0
2017-Oct-27 21:57N 46°30' E 030°44'0 0.0
2017-Oct-27 21:24N 46°30' E 030°44'0 0.0
2017-Oct-27 20:57N 46°30' E 030°44'0 0.0
2017-Oct-27 20:21N 46°30' E 030°44'0 0.0
2017-Oct-27 19:57N 46°30' E 030°44'0 0.0
2017-Oct-27 19:30N 46°30' E 030°44'0 0.0
2017-Oct-27 18:51N 46°30' E 030°44'0 0.0
2017-Oct-27 18:30N 46°30' E 030°44'0 0.0
2017-Oct-27 17:48N 46°30' E 030°44'0 0.0
2017-Oct-27 17:27N 46°30' E 030°44'0 0.0
2017-Oct-27 16:51N 46°30' E 030°44'0 0.0
2017-Oct-27 16:30N 46°30' E 030°44'0 0.0
2017-Oct-27 16:00N 46°30' E 030°44'0 0.0
2017-Oct-27 15:30N 46°30' E 030°44'0 0.0
2017-Oct-27 14:54N 46°30' E 030°44'0 0.0
2017-Oct-27 14:30N 46°30' E 030°44'0 0.0
2017-Oct-27 14:00N 46°30' E 030°44'0 0.0
2017-Oct-27 13:30N 46°30' E 030°44'0 0.0
2017-Oct-27 12:57N 46°30' E 030°44'0 0.0
2017-Oct-27 11:57N 46°30' E 030°44'0 0.0
2017-Oct-27 11:30N 46°30' E 030°44'0 0.0
2017-Oct-27 10:57N 46°30' E 030°44'0 0.0
2017-Oct-27 10:30N 46°30' E 030°44'0 0.0
2017-Oct-27 10:00N 46°30' E 030°44'0 0.0
2017-Oct-27 09:18N 46°30' E 030°44'0 0.0
2017-Oct-27 09:00N 46°30' E 030°44'0 0.0
2017-Oct-27 08:15N 46°30' E 030°44'0 0.0
2017-Oct-27 07:57N 46°30' E 030°44'0 0.0
2017-Oct-27 07:09N 46°30' E 030°44'0 0.0
2017-Oct-27 07:00N 46°30' E 030°44'0 0.0
2017-Oct-27 06:27N 46°30' E 030°44'0 0.0
2017-Oct-27 05:57N 46°30' E 030°44'0 0.0
2017-Oct-27 05:18N 46°30' E 030°44'0 0.0
2017-Oct-27 04:57N 46°30' E 030°44'0 0.0
2017-Oct-27 04:24N 46°30' E 030°44'0 0.0
2017-Oct-27 03:57N 46°30' E 030°44'0 0.0
2017-Oct-27 02:51N 46°30' E 030°44'0 0.0
2017-Oct-27 02:24N 46°30' E 030°44'0 0.0
2017-Oct-27 01:51N 46°30' E 030°44'0 0.0
2017-Oct-27 01:27N 46°30' E 030°44'0 0.0
2017-Oct-27 00:57N 46°30' E 030°44'0 0.0
2017-Oct-27 00:24N 46°30' E 030°44'0 0.0
2017-Oct-27 00:00N 46°30' E 030°44'0 0.0
2017-Oct-26 23:30N 46°30' E 030°44'0 0.0
2017-Oct-26 22:54N 46°30' E 030°44'0 0.0
2017-Oct-26 22:30N 46°30' E 030°44'0 0.0
2017-Oct-26 22:00N 46°30' E 030°44'0 0.0
2017-Oct-26 21:30N 46°30' E 030°44'0 0.0
2017-Oct-26 20:57N 46°30' E 030°44'0 0.0
2017-Oct-26 20:24N 46°30' E 030°44'0 0.0
2017-Oct-26 19:54N 46°30' E 030°44'0 0.0
2017-Oct-26 19:21N 46°30' E 030°44'0 0.0
2017-Oct-26 18:54N 46°30' E 030°44'0 0.0
2017-Oct-26 18:27N 46°30' E 030°44'0 0.0
2017-Oct-26 17:57N 46°30' E 030°44'0 0.0
2017-Oct-26 17:24N 46°30' E 030°44'0 0.0
2017-Oct-26 16:51N 46°30' E 030°44'0 0.0
2017-Oct-26 16:30N 46°30' E 030°44'0 0.0
2017-Oct-26 15:21N 46°30' E 030°44'0 0.0
2017-Oct-26 14:57N 46°30' E 030°44'0 0.0
2017-Oct-26 14:27N 46°30' E 030°44'0 0.0
2017-Oct-26 14:00N 46°30' E 030°44'0 0.0
2017-Oct-26 13:30N 46°30' E 030°44'0 0.0
2017-Oct-26 13:00N 46°30' E 030°44'0 0.0
2017-Oct-26 12:30N 46°30' E 030°44'0 0.0
2017-Oct-26 12:00N 46°30' E 030°44'0 0.0
2017-Oct-26 11:03N 46°30' E 030°44'0 0.0
2017-Oct-26 10:54N 46°30' E 030°44'0 0.0
2017-Oct-26 10:30N 46°30' E 030°44'0 0.0
2017-Oct-26 09:57N 46°30' E 030°44'0 0.0
2017-Oct-26 09:15N 46°30' E 030°44'0 0.0
2017-Oct-26 08:54N 46°30' E 030°44'0 0.0
2017-Oct-26 08:20N 46°30' E 030°44'0 0.0
2017-Oct-26 07:56N 46°30' E 030°44'0 0.0
2017-Oct-26 07:29N 46°30' E 030°44'0 0.0
2017-Oct-26 06:41N 46°30' E 030°44'0 0.0
2017-Oct-26 06:20N 46°30' E 030°44'0 0.0
2017-Oct-26 05:56N 46°30' E 030°44'0 0.0
2017-Oct-26 05:29N 46°30' E 030°44'0 0.0
2017-Oct-26 04:59N 46°30' E 030°44'0 0.0
2017-Oct-26 04:29N 46°30' E 030°44'0 0.0
2017-Oct-26 03:35N 46°30' E 030°44'0 0.0
2017-Oct-26 03:29N 46°30' E 030°44'0 0.0
2017-Oct-26 02:56N 46°30' E 030°44'0 0.0
2017-Oct-26 02:23N 46°30' E 030°44'0 0.0
2017-Oct-26 01:47N 46°30' E 030°44'0 0.0
2017-Oct-26 01:23N 46°30' E 030°44'0 0.0
2017-Oct-26 00:59N 46°30' E 030°44'0 0.0
2017-Oct-26 00:29N 46°30' E 030°44'0 0.0
2017-Oct-25 23:59N 46°30' E 030°44'0 0.0
2017-Oct-25 23:29N 46°30' E 030°44'0 0.0
2017-Oct-25 22:59N 46°30' E 030°44'0 0.0
2017-Oct-25 22:20N 46°30' E 030°44'0 0.0
2017-Oct-25 21:59N 46°30' E 030°44'0 0.0
2017-Oct-25 21:29N 46°30' E 030°44'0 0.0
2017-Oct-25 20:59N 46°30' E 030°44'0 0.0
2017-Oct-25 20:26N 46°30' E 030°44'0 0.0
2017-Oct-25 19:56N 46°30' E 030°44'0 0.0
2017-Oct-25 19:29N 46°30' E 030°44'0 0.0
2017-Oct-25 18:59N 46°30' E 030°44'0 0.0
2017-Oct-25 18:29N 46°30' E 030°44'0 0.0
2017-Oct-25 17:59N 46°30' E 030°44'0 0.0
2017-Oct-25 17:20N 46°30' E 030°44'0 0.0
2017-Oct-25 16:53N 46°30' E 030°44'0 0.0
2017-Oct-25 16:29N 46°30' E 030°44'0 0.0
2017-Oct-25 15:59N 46°30' E 030°44'0 0.0
2017-Oct-25 15:20N 46°30' E 030°44'0 0.0
2017-Oct-25 14:56N 46°30' E 030°44'0 0.0
2017-Oct-25 14:29N 46°30' E 030°44'0 0.0
2017-Oct-25 13:59N 46°30' E 030°44'0 0.0
2017-Oct-25 13:26N 46°30' E 030°44'0 0.0
2017-Oct-25 12:35N 46°30' E 030°44'0 0.0
2017-Oct-25 12:14N 46°30' E 030°44'0 0.0
2017-Oct-25 11:59N 46°30' E 030°44'0 0.0
2017-Oct-25 11:23N 46°30' E 030°44'0 0.5
2017-Oct-25 11:00N 46°30' E 030°44'0 0.2
2017-Oct-25 10:28N 46°30' E 030°44'0 0.0
2017-Oct-25 09:58N 46°30' E 030°44'0 0.0
2017-Oct-25 09:22N 46°30' E 030°44'0 0.0
2017-Oct-25 08:52N 46°30' E 030°44'0 0.0
2017-Oct-25 08:28N 46°30' E 030°44'0 0.0
2017-Oct-25 07:52N 46°30' E 030°44'0 0.0
2017-Oct-25 07:28N 46°30' E 030°44'0 0.0
2017-Oct-25 06:58N 46°30' E 030°44'0 0.0
2017-Oct-25 06:19N 46°30' E 030°44'0 0.0
2017-Oct-25 05:52N 46°30' E 030°44'0 0.0
2017-Oct-25 05:28N 46°30' E 030°44'0 0.0
2017-Oct-25 04:58N 46°30' E 030°44'0 0.0
2017-Oct-25 04:28N 46°30' E 030°44'0 0.0
2017-Oct-25 03:52N 46°30' E 030°44'0 0.0
2017-Oct-25 03:28N 46°30' E 030°44'0 0.0
2017-Oct-25 02:58N 46°30' E 030°44'0 0.0
2017-Oct-25 02:28N 46°30' E 030°44'0 0.0
2017-Oct-25 01:58N 46°30' E 030°44'0 0.0
2017-Oct-25 01:28N 46°30' E 030°44'0 0.0
2017-Oct-25 00:58N 46°30' E 030°44'0 0.0
2017-Oct-25 00:25N 46°30' E 030°44'0 0.0
2017-Oct-24 23:55N 46°30' E 030°44'0 0.0
2017-Oct-24 23:22N 46°30' E 030°44'0 0.0
2017-Oct-24 22:58N 46°30' E 030°44'0 0.0
2017-Oct-24 22:28N 46°30' E 030°44'0 0.0
2017-Oct-24 21:58N 46°30' E 030°44'0 0.0
2017-Oct-24 21:28N 46°30' E 030°44'0 0.0
2017-Oct-24 20:55N 46°30' E 030°44'0 0.0
2017-Oct-24 20:28N 46°30' E 030°44'0 0.0
2017-Oct-24 19:52N 46°30' E 030°44'0 0.0
2017-Oct-24 19:16N 46°30' E 030°44'0 0.0
2017-Oct-24 18:58N 46°30' E 030°44'0 0.0
2017-Oct-24 18:25N 46°30' E 030°44'0 0.0
2017-Oct-24 17:55N 46°30' E 030°44'0 0.0
2017-Oct-24 17:28N 46°30' E 030°44'0 0.0
2017-Oct-24 16:52N 46°30' E 030°44'0 0.0
2017-Oct-24 16:22N 46°30' E 030°44'0 0.0
2017-Oct-24 15:58N 46°30' E 030°44'0 0.0
2017-Oct-24 15:28N 46°30' E 030°44'0 0.0
2017-Oct-24 14:58N 46°30' E 030°44'0 0.0
2017-Oct-24 14:28N 46°30' E 030°44'0 0.0
2017-Oct-24 13:49N 46°30' E 030°44'0 0.0
2017-Oct-24 13:28N 46°30' E 030°44'0 0.0
2017-Oct-24 12:58N 46°30' E 030°44'0 0.0
2017-Oct-24 12:28N 46°30' E 030°44'0 0.0
2017-Oct-24 11:52N 46°30' E 030°44'0 0.0
2017-Oct-24 11:28N 46°30' E 030°44'0 0.0
2017-Oct-24 10:55N 46°30' E 030°44'0 0.0
2017-Oct-24 10:19N 46°30' E 030°44'0 0.0
2017-Oct-24 09:49N 46°30' E 030°44'0 0.0
2017-Oct-24 09:28N 46°30' E 030°44'0 0.0
2017-Oct-24 08:55N 46°30' E 030°44'0 0.0
2017-Oct-24 08:28N 46°30' E 030°44'0 0.0
2017-Oct-24 07:55N 46°30' E 030°44'0 0.0
2017-Oct-24 07:28N 46°30' E 030°44'0 0.0
2017-Oct-24 06:58N 46°30' E 030°44'0 0.0
2017-Oct-24 06:16N 46°30' E 030°44'0 0.0
2017-Oct-24 05:31N 46°30' E 030°44'0 0.0
2017-Oct-24 05:19N 46°30' E 030°44'0 0.0
2017-Oct-24 04:58N 46°30' E 030°44'0 0.0
2017-Oct-24 04:16N 46°30' E 030°44'0 0.0
2017-Oct-24 03:55N 46°30' E 030°44'0 0.0
2017-Oct-24 03:16N 46°30' E 030°44'0 0.0
2017-Oct-24 02:55N 46°30' E 030°44'0 0.0
2017-Oct-24 02:25N 46°30' E 030°44'0 0.0
2017-Oct-24 01:55N 46°30' E 030°44'0 0.0
2017-Oct-24 01:28N 46°30' E 030°44'0 0.0
2017-Oct-24 00:55N 46°30' E 030°44'0 0.0
2017-Oct-24 00:28N 46°30' E 030°44'0 0.0
2017-Oct-23 23:58N 46°30' E 030°44'0 0.0
2017-Oct-23 23:28N 46°30' E 030°44'0 0.0
2017-Oct-23 22:58N 46°30' E 030°44'0 0.0
2017-Oct-23 22:16N 46°30' E 030°44'0 0.0
2017-Oct-23 21:58N 46°30' E 030°44'0 0.0
2017-Oct-23 21:28N 46°30' E 030°44'0 0.0
2017-Oct-23 20:43N 46°30' E 030°44'0 0.0
2017-Oct-23 20:25N 46°30' E 030°44'0 0.0
2017-Oct-23 19:55N 46°30' E 030°44'0 0.0
2017-Oct-23 19:22N 46°30' E 030°44'0 0.0
2017-Oct-23 18:43N 46°30' E 030°44'0 0.0
2017-Oct-23 18:28N 46°30' E 030°44'0 0.0
2017-Oct-23 18:00N 46°30' E 030°44'0 0.0
2017-Oct-23 17:24N 46°30' E 030°44'0 0.0
2017-Oct-23 17:00N 46°30' E 030°44'0 0.0
2017-Oct-23 16:24N 46°30' E 030°44'0 0.0
2017-Oct-23 16:00N 46°30' E 030°44'0 0.0
2017-Oct-23 15:18N 46°30' E 030°44'0 0.0
2017-Oct-23 15:00N 46°30' E 030°44'0 0.0
2017-Oct-23 14:30N 46°30' E 030°44'0 0.0
2017-Oct-23 13:48N 46°30' E 030°44'0 0.0
2017-Oct-23 11:18N 46°30' E 030°44'0 0.0
2017-Oct-23 11:00N 46°30' E 030°44'0 0.0
2017-Oct-23 10:21N 46°30' E 030°44'0 0.0
2017-Oct-23 10:00N 46°30' E 030°44'0 0.0
2017-Oct-23 09:18N 46°30' E 030°44'0 0.0
2017-Oct-23 08:57N 46°30' E 030°44'0 0.0
2017-Oct-23 08:30N 46°30' E 030°44'0 0.0
2017-Oct-23 08:00N 46°30' E 030°44'0 0.0
2017-Oct-23 07:30N 46°30' E 030°44'0 0.0
2017-Oct-23 07:00N 46°30' E 030°44'0 0.0
2017-Oct-23 06:30N 46°30' E 030°44'0 0.0
2017-Oct-23 06:00N 46°30' E 030°44'0 0.0
2017-Oct-23 05:30N 46°30' E 030°44'0 0.3
2017-Oct-23 05:00N 46°30' E 030°44'1 1.4
2017-Oct-23 04:30N 46°30' E 030°45'0 0.1
2017-Oct-23 01:48N 46°30' E 030°44'0 0.0
2017-Oct-23 01:27N 46°30' E 030°44'0 0.0
2017-Oct-22 23:51N 46°30' E 030°44'0 0.0
2017-Oct-22 23:27N 46°30' E 030°44'0 0.0
2017-Oct-22 22:45N 46°30' E 030°44'0 0.0
2017-Oct-22 22:18N 46°30' E 030°44'0 0.0
2017-Oct-22 22:00N 46°30' E 030°44'0 0.0
2017-Oct-22 21:27N 46°30' E 030°44'0 0.0
2017-Oct-22 21:00N 46°30' E 030°44'0 0.0
2017-Oct-22 20:30N 46°30' E 030°44'0 0.0
2017-Oct-22 19:51N 46°30' E 030°44'0 0.0
2017-Oct-22 19:30N 46°30' E 030°44'0 0.0
2017-Oct-22 19:00N 46°30' E 030°44'0 0.0
2017-Oct-22 18:30N 46°30' E 030°44'0 0.0
2017-Oct-22 17:57N 46°30' E 030°44'0 0.0
2017-Oct-22 17:24N 46°30' E 030°44'0 0.0
2017-Oct-22 16:57N 46°30' E 030°44'0 0.0
2017-Oct-22 16:27N 46°30' E 030°44'0 0.0
2017-Oct-22 16:00N 46°30' E 030°44'0 0.0
2017-Oct-22 15:30N 46°30' E 030°44'0 0.0
2017-Oct-22 15:00N 46°30' E 030°44'0 0.0
2017-Oct-22 14:30N 46°30' E 030°44'0 0.0
2017-Oct-22 14:00N 46°30' E 030°44'0 0.0
2017-Oct-22 13:27N 46°30' E 030°44'0 0.0
2017-Oct-22 13:00N 46°30' E 030°44'0 0.0
2017-Oct-22 12:21N 46°30' E 030°44'0 0.0
2017-Oct-22 11:45N 46°30' E 030°44'0 0.0
2017-Oct-22 11:24N 46°30' E 030°44'0 0.0
2017-Oct-22 10:36N 46°30' E 030°44'0 0.0
2017-Oct-22 10:24N 46°30' E 030°44'0 0.0
2017-Oct-22 10:00N 46°30' E 030°44'0 0.0
2017-Oct-22 09:27N 46°30' E 030°44'0 0.0
2017-Oct-22 09:00N 46°30' E 030°44'0 0.0
2017-Oct-22 07:30N 46°30' E 030°44'0 0.0
2017-Oct-22 06:18N 46°30' E 030°44'0 0.0
2017-Oct-22 05:27N 46°30' E 030°44'0 0.0
2017-Oct-22 04:57N 46°30' E 030°44'0 0.0
2017-Oct-22 04:30N 46°30' E 030°44'0 0.0
2017-Oct-22 03:54N 46°30' E 030°44'0 0.0
2017-Oct-22 03:30N 46°30' E 030°44'0 0.0
2017-Oct-22 03:00N 46°30' E 030°44'0 0.0
2017-Oct-22 02:21N 46°30' E 030°44'0 0.0
2017-Oct-22 01:54N 46°30' E 030°44'0 0.0
2017-Oct-22 00:15N 46°30' E 030°44'0 0.0
2017-Oct-21 23:12N 46°30' E 030°44'0 0.0
2017-Oct-21 22:51N 46°30' E 030°44'0 0.0
2017-Oct-21 22:27N 46°30' E 030°44'0 0.0
2017-Oct-21 21:06N 46°30' E 030°44'0 0.0
2017-Oct-21 19:03N 46°30' E 030°44'  
Track history (hours):
 
Tides and Currents Weather Stations Pressure Air Temp Water Temp Dewpoint Dewpoint Depression Visibility Wind Speed Wind Dir Waves Ship Positions

CL Seven

Last reported at 2017-Oct-31 18:48 UTC. Time now 2017-Dec-16 05:14 UTC.
Position N 37°25' E 025°55'.
Warning: this ship's position is 45 days out of date.

Length 183 m; draft 12.2 m.

Type: Ship. MMSI: 205728000.

Date/timePositionNaut miles runAvg speedWind from/ knotsBaromVisibWave heightAir tempDewpointWater temp
2017-Oct-31 18:48N 37°25' E 025°55'412.0
2017-Oct-31 18:30N 37°28' E 025°54'612.0
2017-Oct-31 18:00N 37°34' E 025°51'712.4
2017-Oct-31 17:29N 37°40' E 025°48'612.2
2017-Oct-31 17:00N 37°45' E 025°46'241 5.6
2017-Oct-29 21:54N 40°57' E 028°54'0 0.0
2017-Oct-29 21:24N 40°57' E 028°54'1 0.2
2017-Oct-29 18:09N 40°57' E 028°55'1 2.5
2017-Oct-29 17:49N 40°57' E 028°56'3 6.4
2017-Oct-29 17:20N 40°59' E 028°59'33310.2
2017-Oct-28 08:32N 46°22' E 030°52'212.3
2017-Oct-28 08:23N 46°24' E 030°51'411.7
2017-Oct-28 08:00N 46°28' E 030°49'3 6.2
2017-Oct-28 07:30N 46°30' E 030°46'1 3.0
2017-Oct-28 07:00N 46°31' E 030°44'0 0.4
2017-Oct-28 06:18N 46°30' E 030°44'0 0.0
2017-Oct-28 05:54N 46°30' E 030°44'0 0.0
2017-Oct-28 05:27N 46°30' E 030°44'0 0.0
2017-Oct-28 05:00N 46°30' E 030°44'0 0.0
2017-Oct-28 04:30N 46°30' E 030°44'0 0.0
2017-Oct-28 03:39N 46°30' E 030°44'0 0.0
2017-Oct-28 03:30N 46°30' E 030°44'0 0.0
2017-Oct-28 02:42N 46°30' E 030°44'0 0.0
2017-Oct-28 02:30N 46°30' E 030°44'0 0.0
2017-Oct-28 01:54N 46°30' E 030°44'0 0.0
2017-Oct-28 01:30N 46°30' E 030°44'0 0.0
2017-Oct-28 00:42N 46°30' E 030°44'0 0.0
2017-Oct-28 00:30N 46°30' E 030°44'0 0.0
2017-Oct-27 23:54N 46°30' E 030°44'0 0.0
2017-Oct-27 23:21N 46°30' E 030°44'0 0.0
2017-Oct-27 23:00N 46°30' E 030°44'0 0.0
2017-Oct-27 22:30N 46°30' E 030°44'0 0.0
2017-Oct-27 21:57N 46°30' E 030°44'0 0.0
2017-Oct-27 21:24N 46°30' E 030°44'0 0.0
2017-Oct-27 20:57N 46°30' E 030°44'0 0.0
2017-Oct-27 20:21N 46°30' E 030°44'0 0.0
2017-Oct-27 19:57N 46°30' E 030°44'0 0.0
2017-Oct-27 19:30N 46°30' E 030°44'0 0.0
2017-Oct-27 18:51N 46°30' E 030°44'0 0.0
2017-Oct-27 18:30N 46°30' E 030°44'0 0.0
2017-Oct-27 17:48N 46°30' E 030°44'0 0.0
2017-Oct-27 17:27N 46°30' E 030°44'0 0.0
2017-Oct-27 16:51N 46°30' E 030°44'0 0.0
2017-Oct-27 16:30N 46°30' E 030°44'0 0.0
2017-Oct-27 16:00N 46°30' E 030°44'0 0.0
2017-Oct-27 15:30N 46°30' E 030°44'0 0.0
2017-Oct-27 14:54N 46°30' E 030°44'0 0.0
2017-Oct-27 14:30N 46°30' E 030°44'0 0.0
2017-Oct-27 14:00N 46°30' E 030°44'0 0.0
2017-Oct-27 13:30N 46°30' E 030°44'0 0.0
2017-Oct-27 12:57N 46°30' E 030°44'0 0.0
2017-Oct-27 11:57N 46°30' E 030°44'0 0.0
2017-Oct-27 11:30N 46°30' E 030°44'0 0.0
2017-Oct-27 10:57N 46°30' E 030°44'0 0.0
2017-Oct-27 10:30N 46°30' E 030°44'0 0.0
2017-Oct-27 10:00N 46°30' E 030°44'0 0.0
2017-Oct-27 09:18N 46°30' E 030°44'0 0.0
2017-Oct-27 09:00N 46°30' E 030°44'0 0.0
2017-Oct-27 08:15N 46°30' E 030°44'0 0.0
2017-Oct-27 07:57N 46°30' E 030°44'0 0.0
2017-Oct-27 07:09N 46°30' E 030°44'0 0.0
2017-Oct-27 07:00N 46°30' E 030°44'0 0.0
2017-Oct-27 06:27N 46°30' E 030°44'0 0.0
2017-Oct-27 05:57N 46°30' E 030°44'0 0.0
2017-Oct-27 05:18N 46°30' E 030°44'0 0.0
2017-Oct-27 04:57N 46°30' E 030°44'0 0.0
2017-Oct-27 04:24N 46°30' E 030°44'0 0.0
2017-Oct-27 03:57N 46°30' E 030°44'0 0.0
2017-Oct-27 02:51N 46°30' E 030°44'0 0.0
2017-Oct-27 02:24N 46°30' E 030°44'0 0.0
2017-Oct-27 01:51N 46°30' E 030°44'0 0.0
2017-Oct-27 01:27N 46°30' E 030°44'0 0.0
2017-Oct-27 00:57N 46°30' E 030°44'0 0.0
2017-Oct-27 00:24N 46°30' E 030°44'0 0.0
2017-Oct-27 00:00N 46°30' E 030°44'0 0.0
2017-Oct-26 23:30N 46°30' E 030°44'0 0.0
2017-Oct-26 22:54N 46°30' E 030°44'0 0.0
2017-Oct-26 22:30N 46°30' E 030°44'0 0.0
2017-Oct-26 22:00N 46°30' E 030°44'0 0.0
2017-Oct-26 21:30N 46°30' E 030°44'0 0.0
2017-Oct-26 20:57N 46°30' E 030°44'0 0.0
2017-Oct-26 20:24N 46°30' E 030°44'0 0.0
2017-Oct-26 19:54N 46°30' E 030°44'0 0.0
2017-Oct-26 19:21N 46°30' E 030°44'0 0.0
2017-Oct-26 18:54N 46°30' E 030°44'0 0.0
2017-Oct-26 18:27N 46°30' E 030°44'0 0.0
2017-Oct-26 17:57N 46°30' E 030°44'0 0.0
2017-Oct-26 17:24N 46°30' E 030°44'0 0.0
2017-Oct-26 16:51N 46°30' E 030°44'0 0.0
2017-Oct-26 16:30N 46°30' E 030°44'0 0.0
2017-Oct-26 15:21N 46°30' E 030°44'0 0.0
2017-Oct-26 14:57N 46°30' E 030°44'0 0.0
2017-Oct-26 14:27N 46°30' E 030°44'0 0.0
2017-Oct-26 14:00N 46°30' E 030°44'0 0.0
2017-Oct-26 13:30N 46°30' E 030°44'0 0.0
2017-Oct-26 13:00N 46°30' E 030°44'0 0.0
2017-Oct-26 12:30N 46°30' E 030°44'0 0.0
2017-Oct-26 12:00N 46°30' E 030°44'0 0.0
2017-Oct-26 11:03N 46°30' E 030°44'0 0.0
2017-Oct-26 10:54N 46°30' E 030°44'0 0.0
2017-Oct-26 10:30N 46°30' E 030°44'0 0.0
2017-Oct-26 09:57N 46°30' E 030°44'0 0.0
2017-Oct-26 09:15N 46°30' E 030°44'0 0.0
2017-Oct-26 08:54N 46°30' E 030°44'0 0.0
2017-Oct-26 08:20N 46°30' E 030°44'0 0.0
2017-Oct-26 07:56N 46°30' E 030°44'0 0.0
2017-Oct-26 07:29N 46°30' E 030°44'0 0.0
2017-Oct-26 06:41N 46°30' E 030°44'0 0.0
2017-Oct-26 06:20N 46°30' E 030°44'0 0.0
2017-Oct-26 05:56N 46°30' E 030°44'0 0.0
2017-Oct-26 05:29N 46°30' E 030°44'0 0.0
2017-Oct-26 04:59N 46°30' E 030°44'0 0.0
2017-Oct-26 04:29N 46°30' E 030°44'0 0.0
2017-Oct-26 03:35N 46°30' E 030°44'0 0.0
2017-Oct-26 03:29N 46°30' E 030°44'0 0.0
2017-Oct-26 02:56N 46°30' E 030°44'0 0.0
2017-Oct-26 02:23N 46°30' E 030°44'0 0.0
2017-Oct-26 01:47N 46°30' E 030°44'0 0.0
2017-Oct-26 01:23N 46°30' E 030°44'0 0.0
2017-Oct-26 00:59N 46°30' E 030°44'0 0.0
2017-Oct-26 00:29N 46°30' E 030°44'0 0.0
2017-Oct-25 23:59N 46°30' E 030°44'0 0.0
2017-Oct-25 23:29N 46°30' E 030°44'0 0.0
2017-Oct-25 22:59N 46°30' E 030°44'0 0.0
2017-Oct-25 22:20N 46°30' E 030°44'0 0.0
2017-Oct-25 21:59N 46°30' E 030°44'0 0.0
2017-Oct-25 21:29N 46°30' E 030°44'0 0.0
2017-Oct-25 20:59N 46°30' E 030°44'0 0.0
2017-Oct-25 20:26N 46°30' E 030°44'0 0.0
2017-Oct-25 19:56N 46°30' E 030°44'0 0.0
2017-Oct-25 19:29N 46°30' E 030°44'0 0.0
2017-Oct-25 18:59N 46°30' E 030°44'0 0.0
2017-Oct-25 18:29N 46°30' E 030°44'0 0.0
2017-Oct-25 17:59N 46°30' E 030°44'0 0.0
2017-Oct-25 17:20N 46°30' E 030°44'0 0.0
2017-Oct-25 16:53N 46°30' E 030°44'0 0.0
2017-Oct-25 16:29N 46°30' E 030°44'0 0.0
2017-Oct-25 15:59N 46°30' E 030°44'0 0.0
2017-Oct-25 15:20N 46°30' E 030°44'0 0.0
2017-Oct-25 14:56N 46°30' E 030°44'0 0.0
2017-Oct-25 14:29N 46°30' E 030°44'0 0.0
2017-Oct-25 13:59N 46°30' E 030°44'0 0.0
2017-Oct-25 13:26N 46°30' E 030°44'0 0.0
2017-Oct-25 12:35N 46°30' E 030°44'0 0.0
2017-Oct-25 12:14N 46°30' E 030°44'0 0.0
2017-Oct-25 11:59N 46°30' E 030°44'0 0.0
2017-Oct-25 11:23N 46°30' E 030°44'0 0.5
2017-Oct-25 11:00N 46°30' E 030°44'0 0.2
2017-Oct-25 10:28N 46°30' E 030°44'0 0.0
2017-Oct-25 09:58N 46°30' E 030°44'0 0.0
2017-Oct-25 09:22N 46°30' E 030°44'0 0.0
2017-Oct-25 08:52N 46°30' E 030°44'0 0.0
2017-Oct-25 08:28N 46°30' E 030°44'0 0.0
2017-Oct-25 07:52N 46°30' E 030°44'0 0.0
2017-Oct-25 07:28N 46°30' E 030°44'0 0.0
2017-Oct-25 06:58N 46°30' E 030°44'0 0.0
2017-Oct-25 06:19N 46°30' E 030°44'0 0.0
2017-Oct-25 05:52N 46°30' E 030°44'0 0.0
2017-Oct-25 05:28N 46°30' E 030°44'0 0.0
2017-Oct-25 04:58N 46°30' E 030°44'0 0.0
2017-Oct-25 04:28N 46°30' E 030°44'0 0.0
2017-Oct-25 03:52N 46°30' E 030°44'0 0.0
2017-Oct-25 03:28N 46°30' E 030°44'0 0.0
2017-Oct-25 02:58N 46°30' E 030°44'0 0.0
2017-Oct-25 02:28N 46°30' E 030°44'0 0.0
2017-Oct-25 01:58N 46°30' E 030°44'0 0.0
2017-Oct-25 01:28N 46°30' E 030°44'0 0.0
2017-Oct-25 00:58N 46°30' E 030°44'0 0.0
2017-Oct-25 00:25N 46°30' E 030°44'0 0.0
2017-Oct-24 23:55N 46°30' E 030°44'0 0.0
2017-Oct-24 23:22N 46°30' E 030°44'0 0.0
2017-Oct-24 22:58N 46°30' E 030°44'0 0.0
2017-Oct-24 22:28N 46°30' E 030°44'0 0.0
2017-Oct-24 21:58N 46°30' E 030°44'0 0.0
2017-Oct-24 21:28N 46°30' E 030°44'0 0.0
2017-Oct-24 20:55N 46°30' E 030°44'0 0.0
2017-Oct-24 20:28N 46°30' E 030°44'0 0.0
2017-Oct-24 19:52N 46°30' E 030°44'0 0.0
2017-Oct-24 19:16N 46°30' E 030°44'0 0.0
2017-Oct-24 18:58N 46°30' E 030°44'0 0.0
2017-Oct-24 18:25N 46°30' E 030°44'0 0.0
2017-Oct-24 17:55N 46°30' E 030°44'0 0.0
2017-Oct-24 17:28N 46°30' E 030°44'0 0.0
2017-Oct-24 16:52N 46°30' E 030°44'0 0.0
2017-Oct-24 16:22N 46°30' E 030°44'0 0.0
2017-Oct-24 15:58N 46°30' E 030°44'0 0.0
2017-Oct-24 15:28N 46°30' E 030°44'0 0.0
2017-Oct-24 14:58N 46°30' E 030°44'0 0.0
2017-Oct-24 14:28N 46°30' E 030°44'0 0.0
2017-Oct-24 13:49N 46°30' E 030°44'0 0.0
2017-Oct-24 13:28N 46°30' E 030°44'0 0.0
2017-Oct-24 12:58N 46°30' E 030°44'0 0.0
2017-Oct-24 12:28N 46°30' E 030°44'0 0.0
2017-Oct-24 11:52N 46°30' E 030°44'0 0.0
2017-Oct-24 11:28N 46°30' E 030°44'0 0.0
2017-Oct-24 10:55N 46°30' E 030°44'0 0.0
2017-Oct-24 10:19N 46°30' E 030°44'0 0.0
2017-Oct-24 09:49N 46°30' E 030°44'0 0.0
2017-Oct-24 09:28N 46°30' E 030°44'0 0.0
2017-Oct-24 08:55N 46°30' E 030°44'0 0.0
2017-Oct-24 08:28N 46°30' E 030°44'0 0.0
2017-Oct-24 07:55N 46°30' E 030°44'0 0.0
2017-Oct-24 07:28N 46°30' E 030°44'0 0.0
2017-Oct-24 06:58N 46°30' E 030°44'0 0.0
2017-Oct-24 06:16N 46°30' E 030°44'0 0.0
2017-Oct-24 05:31N 46°30' E 030°44'0 0.0
2017-Oct-24 05:19N 46°30' E 030°44'0 0.0
2017-Oct-24 04:58N 46°30' E 030°44'0 0.0
2017-Oct-24 04:16N 46°30' E 030°44'0 0.0
2017-Oct-24 03:55N 46°30' E 030°44'0 0.0
2017-Oct-24 03:16N 46°30' E 030°44'0 0.0
2017-Oct-24 02:55N 46°30' E 030°44'0 0.0
2017-Oct-24 02:25N 46°30' E 030°44'0 0.0
2017-Oct-24 01:55N 46°30' E 030°44'0 0.0
2017-Oct-24 01:28N 46°30' E 030°44'0 0.0
2017-Oct-24 00:55N 46°30' E 030°44'0 0.0
2017-Oct-24 00:28N 46°30' E 030°44'0 0.0
2017-Oct-23 23:58N 46°30' E 030°44'0 0.0
2017-Oct-23 23:28N 46°30' E 030°44'0 0.0
2017-Oct-23 22:58N 46°30' E 030°44'0 0.0
2017-Oct-23 22:16N 46°30' E 030°44'0 0.0
2017-Oct-23 21:58N 46°30' E 030°44'0 0.0
2017-Oct-23 21:28N 46°30' E 030°44'0 0.0
2017-Oct-23 20:43N 46°30' E 030°44'0 0.0
2017-Oct-23 20:25N 46°30' E 030°44'0 0.0
2017-Oct-23 19:55N 46°30' E 030°44'0 0.0
2017-Oct-23 19:22N 46°30' E 030°44'0 0.0
2017-Oct-23 18:43N 46°30' E 030°44'0 0.0
2017-Oct-23 18:28N 46°30' E 030°44'0 0.0
2017-Oct-23 18:00N 46°30' E 030°44'0 0.0
2017-Oct-23 17:24N 46°30' E 030°44'0 0.0
2017-Oct-23 17:00N 46°30' E 030°44'0 0.0
2017-Oct-23 16:24N 46°30' E 030°44'0 0.0
2017-Oct-23 16:00N 46°30' E 030°44'0 0.0
2017-Oct-23 15:18N 46°30' E 030°44'0 0.0
2017-Oct-23 15:00N 46°30' E 030°44'0 0.0
2017-Oct-23 14:30N 46°30' E 030°44'0 0.0
2017-Oct-23 13:48N 46°30' E 030°44'0 0.0
2017-Oct-23 11:18N 46°30' E 030°44'0 0.0
2017-Oct-23 11:00N 46°30' E 030°44'0 0.0
2017-Oct-23 10:21N 46°30' E 030°44'0 0.0
2017-Oct-23 10:00N 46°30' E 030°44'0 0.0
2017-Oct-23 09:18N 46°30' E 030°44'0 0.0
2017-Oct-23 08:57N 46°30' E 030°44'0 0.0
2017-Oct-23 08:30N 46°30' E 030°44'0 0.0
2017-Oct-23 08:00N 46°30' E 030°44'0 0.0
2017-Oct-23 07:30N 46°30' E 030°44'0 0.0
2017-Oct-23 07:00N 46°30' E 030°44'0 0.0
2017-Oct-23 06:30N 46°30' E 030°44'0 0.0
2017-Oct-23 06:00N 46°30' E 030°44'0 0.0
2017-Oct-23 05:30N 46°30' E 030°44'0 0.3
2017-Oct-23 05:00N 46°30' E 030°44'1 1.4
2017-Oct-23 04:30N 46°30' E 030°45'0 0.1
2017-Oct-23 01:48N 46°30' E 030°44'0 0.0
2017-Oct-23 01:27N 46°30' E 030°44'0 0.0
2017-Oct-22 23:51N 46°30' E 030°44'0 0.0
2017-Oct-22 23:27N 46°30' E 030°44'0 0.0
2017-Oct-22 22:45N 46°30' E 030°44'0 0.0
2017-Oct-22 22:18N 46°30' E 030°44'0 0.0
2017-Oct-22 22:00N 46°30' E 030°44'0 0.0
2017-Oct-22 21:27N 46°30' E 030°44'0 0.0
2017-Oct-22 21:00N 46°30' E 030°44'0 0.0
2017-Oct-22 20:30N 46°30' E 030°44'0 0.0
2017-Oct-22 19:51N 46°30' E 030°44'0 0.0
2017-Oct-22 19:30N 46°30' E 030°44'0 0.0
2017-Oct-22 19:00N 46°30' E 030°44'0 0.0
2017-Oct-22 18:30N 46°30' E 030°44'0 0.0
2017-Oct-22 17:57N 46°30' E 030°44'0 0.0
2017-Oct-22 17:24N 46°30' E 030°44'0 0.0
2017-Oct-22 16:57N 46°30' E 030°44'0 0.0
2017-Oct-22 16:27N 46°30' E 030°44'0 0.0
2017-Oct-22 16:00N 46°30' E 030°44'0 0.0
2017-Oct-22 15:30N 46°30' E 030°44'0 0.0
2017-Oct-22 15:00N 46°30' E 030°44'0 0.0
2017-Oct-22 14:30N 46°30' E 030°44'0 0.0
2017-Oct-22 14:00N 46°30' E 030°44'0 0.0
2017-Oct-22 13:27N 46°30' E 030°44'0 0.0
2017-Oct-22 13:00N 46°30' E 030°44'0 0.0
2017-Oct-22 12:21N 46°30' E 030°44'0 0.0
2017-Oct-22 11:45N 46°30' E 030°44'0 0.0
2017-Oct-22 11:24N 46°30' E 030°44'0 0.0
2017-Oct-22 10:36N 46°30' E 030°44'0 0.0
2017-Oct-22 10:24N 46°30' E 030°44'0 0.0
2017-Oct-22 10:00N 46°30' E 030°44'0 0.0
2017-Oct-22 09:27N 46°30' E 030°44'0 0.0
2017-Oct-22 09:00N 46°30' E 030°44'0 0.0
2017-Oct-22 07:30N 46°30' E 030°44'0 0.0
2017-Oct-22 06:18N 46°30' E 030°44'0 0.0
2017-Oct-22 05:27N 46°30' E 030°44'0 0.0
2017-Oct-22 04:57N 46°30' E 030°44'0 0.0
2017-Oct-22 04:30N 46°30' E 030°44'0 0.0
2017-Oct-22 03:54N 46°30' E 030°44'0 0.0
2017-Oct-22 03:30N 46°30' E 030°44'0 0.0
2017-Oct-22 03:00N 46°30' E 030°44'0 0.0
2017-Oct-22 02:21N 46°30' E 030°44'0 0.0
2017-Oct-22 01:54N 46°30' E 030°44'0 0.0
2017-Oct-22 00:15N 46°30' E 030°44'0 0.0
2017-Oct-21 23:12N 46°30' E 030°44'0 0.0
2017-Oct-21 22:51N 46°30' E 030°44'0 0.0
2017-Oct-21 22:27N 46°30' E 030°44'0 0.0
2017-Oct-21 21:06N 46°30' E 030°44'0 0.0
2017-Oct-21 19:03N 46°30' E 030°44'  

Dump ship's entire track history